sensor_id;sensor_type;location;lat;lon;timestamp;P1;durP1;ratioP1;P2;durP2;ratioP2
71207;SDS011;58938;49.868;8.646;2023-05-07T00:01:51;6.67;;;3.20;;
71207;SDS011;58938;49.868;8.646;2023-05-07T00:04:17;5.78;;;2.67;;
71207;SDS011;58938;49.868;8.646;2023-05-07T00:06:43;5.70;;;3.20;;
71207;SDS011;58938;49.868;8.646;2023-05-07T00:09:09;6.03;;;3.00;;
71207;SDS011;58938;49.868;8.646;2023-05-07T00:11:35;7.23;;;3.07;;
71207;SDS011;58938;49.868;8.646;2023-05-07T00:14:01;5.20;;;2.95;;
71207;SDS011;58938;49.868;8.646;2023-05-07T00:16:27;5.65;;;3.30;;
71207;SDS011;58938;49.868;8.646;2023-05-07T00:18:53;5.00;;;3.30;;
71207;SDS011;58938;49.868;8.646;2023-05-07T00:21:19;5.33;;;2.80;;
71207;SDS011;58938;49.868;8.646;2023-05-07T00:23:46;8.07;;;3.45;;
71207;SDS011;58938;49.868;8.646;2023-05-07T00:26:12;8.38;;;3.35;;
71207;SDS011;58938;49.868;8.646;2023-05-07T00:28:38;5.90;;;3.20;;
71207;SDS011;58938;49.868;8.646;2023-05-07T00:31:05;5.95;;;3.50;;
71207;SDS011;58938;49.868;8.646;2023-05-07T00:33:31;7.57;;;2.60;;
71207;SDS011;58938;49.868;8.646;2023-05-07T00:35:57;5.93;;;3.25;;
71207;SDS011;58938;49.868;8.646;2023-05-07T00:38:23;6.90;;;3.10;;
71207;SDS011;58938;49.868;8.646;2023-05-07T00:40:49;10.23;;;3.58;;
71207;SDS011;58938;49.868;8.646;2023-05-07T00:43:16;7.32;;;3.45;;
71207;SDS011;58938;49.868;8.646;2023-05-07T00:45:42;7.93;;;3.70;;
71207;SDS011;58938;49.868;8.646;2023-05-07T00:48:08;5.45;;;3.30;;
71207;SDS011;58938;49.868;8.646;2023-05-07T00:50:34;7.38;;;3.80;;
71207;SDS011;58938;49.868;8.646;2023-05-07T00:53:00;5.90;;;3.10;;
71207;SDS011;58938;49.868;8.646;2023-05-07T00:55:27;7.30;;;3.77;;
71207;SDS011;58938;49.868;8.646;2023-05-07T00:57:53;6.65;;;3.45;;
71207;SDS011;58938;49.868;8.646;2023-05-07T01:00:19;5.75;;;3.63;;
71207;SDS011;58938;49.868;8.646;2023-05-07T01:02:46;6.47;;;3.40;;
71207;SDS011;58938;49.868;8.646;2023-05-07T01:05:12;6.50;;;3.08;;
71207;SDS011;58938;49.868;8.646;2023-05-07T01:07:40;6.33;;;3.20;;
71207;SDS011;58938;49.868;8.646;2023-05-07T01:10:06;6.57;;;4.07;;
71207;SDS011;58938;49.868;8.646;2023-05-07T01:12:33;6.30;;;3.88;;
71207;SDS011;58938;49.868;8.646;2023-05-07T01:14:59;6.72;;;3.45;;
71207;SDS011;58938;49.868;8.646;2023-05-07T01:17:26;7.53;;;3.92;;
71207;SDS011;58938;49.868;8.646;2023-05-07T01:19:52;6.93;;;3.73;;
71207;SDS011;58938;49.868;8.646;2023-05-07T01:22:39;7.30;;;3.80;;
71207;SDS011;58938;49.868;8.646;2023-05-07T01:25:05;6.28;;;4.00;;
71207;SDS011;58938;49.868;8.646;2023-05-07T01:27:32;8.13;;;3.90;;
71207;SDS011;58938;49.868;8.646;2023-05-07T01:29:58;6.90;;;4.03;;
71207;SDS011;58938;49.868;8.646;2023-05-07T01:32:29;7.30;;;4.10;;
71207;SDS011;58938;49.868;8.646;2023-05-07T01:34:55;6.78;;;3.90;;
71207;SDS011;58938;49.868;8.646;2023-05-07T01:37:23;8.90;;;4.53;;
71207;SDS011;58938;49.868;8.646;2023-05-07T01:39:49;6.70;;;4.53;;
71207;SDS011;58938;49.868;8.646;2023-05-07T01:42:15;6.35;;;3.75;;
71207;SDS011;58938;49.868;8.646;2023-05-07T01:44:41;7.50;;;4.50;;
71207;SDS011;58938;49.868;8.646;2023-05-07T01:47:07;6.38;;;4.38;;
71207;SDS011;58938;49.868;8.646;2023-05-07T01:49:34;7.18;;;4.28;;
71207;SDS011;58938;49.868;8.646;2023-05-07T01:52:01;5.82;;;3.88;;
71207;SDS011;58938;49.868;8.646;2023-05-07T01:54:27;7.57;;;4.07;;
71207;SDS011;58938;49.868;8.646;2023-05-07T01:56:53;8.00;;;4.30;;
71207;SDS011;58938;49.868;8.646;2023-05-07T01:59:19;7.72;;;4.50;;
71207;SDS011;58938;49.868;8.646;2023-05-07T02:01:45;8.15;;;4.38;;
71207;SDS011;58938;49.868;8.646;2023-05-07T02:04:12;8.25;;;4.57;;
71207;SDS011;58938;49.868;8.646;2023-05-07T02:06:38;7.17;;;4.47;;
71207;SDS011;58938;49.868;8.646;2023-05-07T02:09:04;7.68;;;4.20;;
71207;SDS011;58938;49.868;8.646;2023-05-07T02:11:30;10.30;;;4.85;;
71207;SDS011;58938;49.868;8.646;2023-05-07T02:13:56;8.63;;;4.28;;
71207;SDS011;58938;49.868;8.646;2023-05-07T02:16:22;7.00;;;4.27;;
71207;SDS011;58938;49.868;8.646;2023-05-07T02:18:48;8.27;;;4.70;;
71207;SDS011;58938;49.868;8.646;2023-05-07T02:21:14;6.72;;;4.72;;
71207;SDS011;58938;49.868;8.646;2023-05-07T02:23:40;9.75;;;4.65;;
71207;SDS011;58938;49.868;8.646;2023-05-07T02:26:07;7.35;;;4.88;;
71207;SDS011;58938;49.868;8.646;2023-05-07T02:28:32;9.37;;;4.87;;
71207;SDS011;58938;49.868;8.646;2023-05-07T02:31:02;7.85;;;4.93;;
71207;SDS011;58938;49.868;8.646;2023-05-07T02:33:28;8.35;;;5.13;;
71207;SDS011;58938;49.868;8.646;2023-05-07T02:35:54;7.63;;;5.20;;
71207;SDS011;58938;49.868;8.646;2023-05-07T02:38:20;8.32;;;4.82;;
71207;SDS011;58938;49.868;8.646;2023-05-07T02:40:46;8.83;;;5.37;;
71207;SDS011;58938;49.868;8.646;2023-05-07T02:43:12;7.15;;;5.20;;
71207;SDS011;58938;49.868;8.646;2023-05-07T02:45:38;9.65;;;5.10;;
71207;SDS011;58938;49.868;8.646;2023-05-07T02:48:04;7.15;;;4.68;;
71207;SDS011;58938;49.868;8.646;2023-05-07T02:50:31;7.57;;;4.77;;
71207;SDS011;58938;49.868;8.646;2023-05-07T02:52:57;9.82;;;4.78;;
71207;SDS011;58938;49.868;8.646;2023-05-07T02:55:23;7.55;;;5.05;;
71207;SDS011;58938;49.868;8.646;2023-05-07T02:57:49;7.50;;;5.00;;
71207;SDS011;58938;49.868;8.646;2023-05-07T03:00:16;7.78;;;4.50;;
71207;SDS011;58938;49.868;8.646;2023-05-07T03:02:43;7.73;;;4.53;;
71207;SDS011;58938;49.868;8.646;2023-05-07T03:05:09;8.82;;;4.30;;
71207;SDS011;58938;49.868;8.646;2023-05-07T03:07:35;7.97;;;4.90;;
71207;SDS011;58938;49.868;8.646;2023-05-07T03:10:02;7.45;;;4.28;;
71207;SDS011;58938;49.868;8.646;2023-05-07T03:12:28;7.00;;;4.65;;
71207;SDS011;58938;49.868;8.646;2023-05-07T03:14:54;7.23;;;4.00;;
71207;SDS011;58938;49.868;8.646;2023-05-07T03:17:20;5.78;;;3.65;;
71207;SDS011;58938;49.868;8.646;2023-05-07T03:19:46;5.50;;;3.90;;
71207;SDS011;58938;49.868;8.646;2023-05-07T03:22:12;6.97;;;3.92;;
71207;SDS011;58938;49.868;8.646;2023-05-07T03:24:38;6.80;;;3.50;;
71207;SDS011;58938;49.868;8.646;2023-05-07T03:27:04;7.70;;;3.93;;
71207;SDS011;58938;49.868;8.646;2023-05-07T03:29:30;6.45;;;4.15;;
71207;SDS011;58938;49.868;8.646;2023-05-07T03:31:56;6.55;;;3.70;;
71207;SDS011;58938;49.868;8.646;2023-05-07T03:34:22;5.30;;;3.20;;
71207;SDS011;58938;49.868;8.646;2023-05-07T03:36:48;6.57;;;3.70;;
71207;SDS011;58938;49.868;8.646;2023-05-07T03:39:14;6.70;;;3.80;;
71207;SDS011;58938;49.868;8.646;2023-05-07T03:41:40;5.75;;;3.90;;
71207;SDS011;58938;49.868;8.646;2023-05-07T03:44:06;5.57;;;3.85;;
71207;SDS011;58938;49.868;8.646;2023-05-07T03:46:33;5.43;;;3.13;;
71207;SDS011;58938;49.868;8.646;2023-05-07T03:48:59;6.25;;;3.60;;
71207;SDS011;58938;49.868;8.646;2023-05-07T03:51:25;6.82;;;3.58;;
71207;SDS011;58938;49.868;8.646;2023-05-07T03:53:51;5.00;;;2.85;;
71207;SDS011;58938;49.868;8.646;2023-05-07T03:56:18;6.57;;;3.63;;
71207;SDS011;58938;49.868;8.646;2023-05-07T03:58:44;6.27;;;3.33;;
71207;SDS011;58938;49.868;8.646;2023-05-07T04:01:10;6.25;;;3.53;;
71207;SDS011;58938;49.868;8.646;2023-05-07T04:03:37;5.07;;;3.35;;
71207;SDS011;58938;49.868;8.646;2023-05-07T04:06:03;5.00;;;3.40;;
71207;SDS011;58938;49.868;8.646;2023-05-07T04:08:29;6.47;;;3.25;;
71207;SDS011;58938;49.868;8.646;2023-05-07T04:10:55;6.93;;;3.30;;
71207;SDS011;58938;49.868;8.646;2023-05-07T04:13:21;5.95;;;3.70;;
71207;SDS011;58938;49.868;8.646;2023-05-07T04:15:47;6.25;;;3.40;;
71207;SDS011;58938;49.868;8.646;2023-05-07T04:18:14;6.15;;;3.55;;
71207;SDS011;58938;49.868;8.646;2023-05-07T04:20:40;6.90;;;3.50;;
71207;SDS011;58938;49.868;8.646;2023-05-07T04:23:06;5.75;;;3.25;;
71207;SDS011;58938;49.868;8.646;2023-05-07T04:25:32;9.25;;;3.40;;
71207;SDS011;58938;49.868;8.646;2023-05-07T04:27:58;5.50;;;3.20;;
71207;SDS011;58938;49.868;8.646;2023-05-07T04:30:25;6.90;;;3.83;;
71207;SDS011;58938;49.868;8.646;2023-05-07T04:32:51;5.90;;;3.07;;
71207;SDS011;58938;49.868;8.646;2023-05-07T04:35:17;6.22;;;3.65;;
71207;SDS011;58938;49.868;8.646;2023-05-07T04:37:44;5.78;;;3.97;;
71207;SDS011;58938;49.868;8.646;2023-05-07T04:40:10;6.47;;;3.40;;
71207;SDS011;58938;49.868;8.646;2023-05-07T04:42:36;5.85;;;3.60;;
71207;SDS011;58938;49.868;8.646;2023-05-07T04:45:02;7.70;;;3.33;;
71207;SDS011;58938;49.868;8.646;2023-05-07T04:47:30;6.47;;;3.60;;
71207;SDS011;58938;49.868;8.646;2023-05-07T04:49:57;6.07;;;3.92;;
71207;SDS011;58938;49.868;8.646;2023-05-07T04:52:23;5.85;;;3.88;;
71207;SDS011;58938;49.868;8.646;2023-05-07T04:54:49;8.00;;;4.00;;
71207;SDS011;58938;49.868;8.646;2023-05-07T04:57:15;6.10;;;4.00;;
71207;SDS011;58938;49.868;8.646;2023-05-07T04:59:42;5.28;;;3.40;;
71207;SDS011;58938;49.868;8.646;2023-05-07T05:02:08;5.82;;;3.40;;
71207;SDS011;58938;49.868;8.646;2023-05-07T05:04:34;6.13;;;3.83;;
71207;SDS011;58938;49.868;8.646;2023-05-07T05:07:00;12.63;;;3.38;;
71207;SDS011;58938;49.868;8.646;2023-05-07T05:09:27;6.57;;;4.27;;
71207;SDS011;58938;49.868;8.646;2023-05-07T05:11:53;6.05;;;3.50;;
71207;SDS011;58938;49.868;8.646;2023-05-07T05:14:20;5.45;;;3.30;;
71207;SDS011;58938;49.868;8.646;2023-05-07T05:16:46;7.00;;;3.40;;
71207;SDS011;58938;49.868;8.646;2023-05-07T05:19:12;4.70;;;3.17;;
71207;SDS011;58938;49.868;8.646;2023-05-07T05:21:38;6.32;;;3.63;;
71207;SDS011;58938;49.868;8.646;2023-05-07T05:24:04;8.20;;;4.05;;
71207;SDS011;58938;49.868;8.646;2023-05-07T05:26:30;6.38;;;3.97;;
71207;SDS011;58938;49.868;8.646;2023-05-07T05:28:56;7.57;;;3.33;;
71207;SDS011;58938;49.868;8.646;2023-05-07T05:31:22;5.47;;;3.85;;
71207;SDS011;58938;49.868;8.646;2023-05-07T05:33:48;6.57;;;3.50;;
71207;SDS011;58938;49.868;8.646;2023-05-07T05:36:14;5.28;;;3.40;;
71207;SDS011;58938;49.868;8.646;2023-05-07T05:38:40;7.57;;;4.00;;
71207;SDS011;58938;49.868;8.646;2023-05-07T05:41:06;6.97;;;3.65;;
71207;SDS011;58938;49.868;8.646;2023-05-07T05:43:32;6.97;;;3.90;;
71207;SDS011;58938;49.868;8.646;2023-05-07T05:45:58;6.37;;;3.70;;
71207;SDS011;58938;49.868;8.646;2023-05-07T05:48:25;5.38;;;3.40;;
71207;SDS011;58938;49.868;8.646;2023-05-07T05:50:51;5.95;;;3.97;;
71207;SDS011;58938;49.868;8.646;2023-05-07T05:53:17;5.47;;;3.60;;
71207;SDS011;58938;49.868;8.646;2023-05-07T05:55:43;5.47;;;3.85;;
71207;SDS011;58938;49.868;8.646;2023-05-07T05:58:09;7.17;;;3.63;;
71207;SDS011;58938;49.868;8.646;2023-05-07T06:00:35;6.72;;;4.38;;
71207;SDS011;58938;49.868;8.646;2023-05-07T06:03:01;7.65;;;4.18;;
71207;SDS011;58938;49.868;8.646;2023-05-07T06:05:27;8.98;;;4.65;;
71207;SDS011;58938;49.868;8.646;2023-05-07T06:07:53;7.30;;;4.40;;
71207;SDS011;58938;49.868;8.646;2023-05-07T06:10:19;6.90;;;4.20;;
71207;SDS011;58938;49.868;8.646;2023-05-07T06:12:45;6.78;;;4.00;;
71207;SDS011;58938;49.868;8.646;2023-05-07T06:15:11;6.25;;;4.00;;
71207;SDS011;58938;49.868;8.646;2023-05-07T06:17:37;6.63;;;3.73;;
71207;SDS011;58938;49.868;8.646;2023-05-07T06:20:03;6.27;;;3.63;;
71207;SDS011;58938;49.868;8.646;2023-05-07T06:22:29;7.15;;;3.75;;
71207;SDS011;58938;49.868;8.646;2023-05-07T06:24:55;7.10;;;4.05;;
71207;SDS011;58938;49.868;8.646;2023-05-07T06:27:21;5.60;;;4.05;;
71207;SDS011;58938;49.868;8.646;2023-05-07T06:29:47;5.93;;;4.03;;
71207;SDS011;58938;49.868;8.646;2023-05-07T06:32:14;5.97;;;3.85;;
71207;SDS011;58938;49.868;8.646;2023-05-07T06:34:40;6.75;;;3.85;;
71207;SDS011;58938;49.868;8.646;2023-05-07T06:37:06;6.57;;;3.63;;
71207;SDS011;58938;49.868;8.646;2023-05-07T06:39:32;7.97;;;4.32;;
71207;SDS011;58938;49.868;8.646;2023-05-07T06:41:59;6.50;;;3.47;;
71207;SDS011;58938;49.868;8.646;2023-05-07T06:44:25;6.22;;;3.53;;
71207;SDS011;58938;49.868;8.646;2023-05-07T06:46:51;6.30;;;4.20;;
71207;SDS011;58938;49.868;8.646;2023-05-07T06:49:17;6.55;;;4.03;;
71207;SDS011;58938;49.868;8.646;2023-05-07T06:51:43;6.93;;;3.90;;
71207;SDS011;58938;49.868;8.646;2023-05-07T06:54:09;6.53;;;3.83;;
71207;SDS011;58938;49.868;8.646;2023-05-07T06:56:35;6.53;;;4.03;;
71207;SDS011;58938;49.868;8.646;2023-05-07T06:59:01;5.70;;;3.88;;
71207;SDS011;58938;49.868;8.646;2023-05-07T07:01:27;5.88;;;4.10;;
71207;SDS011;58938;49.868;8.646;2023-05-07T07:03:53;6.07;;;3.85;;
71207;SDS011;58938;49.868;8.646;2023-05-07T07:06:19;6.47;;;3.90;;
71207;SDS011;58938;49.868;8.646;2023-05-07T07:08:45;6.47;;;3.92;;
71207;SDS011;58938;49.868;8.646;2023-05-07T07:11:11;6.25;;;3.80;;
71207;SDS011;58938;49.868;8.646;2023-05-07T07:13:37;6.28;;;4.13;;
71207;SDS011;58938;49.868;8.646;2023-05-07T07:16:05;7.83;;;3.83;;
71207;SDS011;58938;49.868;8.646;2023-05-07T07:18:31;6.57;;;4.22;;
71207;SDS011;58938;49.868;8.646;2023-05-07T07:20:57;8.32;;;4.47;;
71207;SDS011;58938;49.868;8.646;2023-05-07T07:23:23;7.97;;;3.92;;
71207;SDS011;58938;49.868;8.646;2023-05-07T07:25:49;7.18;;;4.50;;
71207;SDS011;58938;49.868;8.646;2023-05-07T07:28:15;8.43;;;3.53;;
71207;SDS011;58938;49.868;8.646;2023-05-07T07:30:41;7.25;;;3.67;;
71207;SDS011;58938;49.868;8.646;2023-05-07T07:33:07;6.68;;;3.42;;
71207;SDS011;58938;49.868;8.646;2023-05-07T07:35:33;7.32;;;4.00;;
71207;SDS011;58938;49.868;8.646;2023-05-07T07:37:59;6.67;;;3.83;;
71207;SDS011;58938;49.868;8.646;2023-05-07T07:40:26;6.90;;;4.30;;
71207;SDS011;58938;49.868;8.646;2023-05-07T07:42:53;8.13;;;3.90;;
71207;SDS011;58938;49.868;8.646;2023-05-07T07:45:19;6.63;;;4.10;;
71207;SDS011;58938;49.868;8.646;2023-05-07T07:47:45;7.68;;;4.45;;
71207;SDS011;58938;49.868;8.646;2023-05-07T07:50:11;6.63;;;4.00;;
71207;SDS011;58938;49.868;8.646;2023-05-07T07:52:37;7.00;;;3.97;;
71207;SDS011;58938;49.868;8.646;2023-05-07T07:55:03;6.97;;;4.47;;
71207;SDS011;58938;49.868;8.646;2023-05-07T07:57:29;7.53;;;4.10;;
71207;SDS011;58938;49.868;8.646;2023-05-07T07:59:55;6.35;;;4.82;;
71207;SDS011;58938;49.868;8.646;2023-05-07T08:02:21;7.60;;;4.63;;
71207;SDS011;58938;49.868;8.646;2023-05-07T08:04:47;7.45;;;4.63;;
71207;SDS011;58938;49.868;8.646;2023-05-07T08:07:13;6.20;;;4.93;;
71207;SDS011;58938;49.868;8.646;2023-05-07T08:09:39;7.53;;;4.57;;
71207;SDS011;58938;49.868;8.646;2023-05-07T08:12:06;6.83;;;4.37;;
71207;SDS011;58938;49.868;8.646;2023-05-07T08:14:33;6.03;;;3.80;;
71207;SDS011;58938;49.868;8.646;2023-05-07T08:16:59;6.85;;;4.70;;
71207;SDS011;58938;49.868;8.646;2023-05-07T08:19:25;6.60;;;4.30;;
71207;SDS011;58938;49.868;8.646;2023-05-07T08:21:51;7.45;;;4.45;;
71207;SDS011;58938;49.868;8.646;2023-05-07T08:24:17;7.13;;;4.30;;
71207;SDS011;58938;49.868;8.646;2023-05-07T08:26:43;7.75;;;4.47;;
71207;SDS011;58938;49.868;8.646;2023-05-07T08:29:10;6.03;;;4.32;;
71207;SDS011;58938;49.868;8.646;2023-05-07T08:31:36;6.85;;;4.50;;
71207;SDS011;58938;49.868;8.646;2023-05-07T08:34:04;6.50;;;4.93;;
71207;SDS011;58938;49.868;8.646;2023-05-07T08:36:31;6.87;;;4.40;;
71207;SDS011;58938;49.868;8.646;2023-05-07T08:38:57;9.68;;;4.28;;
71207;SDS011;58938;49.868;8.646;2023-05-07T08:41:23;7.45;;;4.07;;
71207;SDS011;58938;49.868;8.646;2023-05-07T08:43:50;7.03;;;4.35;;
71207;SDS011;58938;49.868;8.646;2023-05-07T08:46:22;6.50;;;4.88;;
71207;SDS011;58938;49.868;8.646;2023-05-07T08:48:48;7.30;;;4.33;;
71207;SDS011;58938;49.868;8.646;2023-05-07T08:51:18;6.65;;;4.22;;
71207;SDS011;58938;49.868;8.646;2023-05-07T08:53:44;7.30;;;4.47;;
71207;SDS011;58938;49.868;8.646;2023-05-07T08:56:11;7.55;;;4.50;;
71207;SDS011;58938;49.868;8.646;2023-05-07T08:58:37;8.93;;;4.50;;
71207;SDS011;58938;49.868;8.646;2023-05-07T09:01:05;7.30;;;5.07;;
71207;SDS011;58938;49.868;8.646;2023-05-07T09:03:33;8.20;;;4.35;;
71207;SDS011;58938;49.868;8.646;2023-05-07T09:05:59;7.22;;;4.22;;
71207;SDS011;58938;49.868;8.646;2023-05-07T09:08:26;6.97;;;4.30;;
71207;SDS011;58938;49.868;8.646;2023-05-07T09:10:52;7.43;;;4.70;;
71207;SDS011;58938;49.868;8.646;2023-05-07T09:13:19;8.83;;;4.47;;
71207;SDS011;58938;49.868;8.646;2023-05-07T09:15:45;8.32;;;5.13;;
71207;SDS011;58938;49.868;8.646;2023-05-07T09:18:14;7.85;;;5.10;;
71207;SDS011;58938;49.868;8.646;2023-05-07T09:20:40;7.20;;;5.00;;
71207;SDS011;58938;49.868;8.646;2023-05-07T09:23:07;8.13;;;4.60;;
71207;SDS011;58938;49.868;8.646;2023-05-07T09:25:34;6.77;;;4.77;;
71207;SDS011;58938;49.868;8.646;2023-05-07T09:28:00;7.53;;;4.75;;
71207;SDS011;58938;49.868;8.646;2023-05-07T09:30:30;8.20;;;4.60;;
71207;SDS011;58938;49.868;8.646;2023-05-07T09:33:00;8.98;;;4.60;;
71207;SDS011;58938;49.868;8.646;2023-05-07T09:35:27;7.47;;;4.53;;
71207;SDS011;58938;49.868;8.646;2023-05-07T09:37:53;6.97;;;4.73;;
71207;SDS011;58938;49.868;8.646;2023-05-07T09:40:23;7.25;;;4.90;;
71207;SDS011;58938;49.868;8.646;2023-05-07T09:42:49;7.75;;;4.88;;
71207;SDS011;58938;49.868;8.646;2023-05-07T09:45:16;8.63;;;5.13;;
71207;SDS011;58938;49.868;8.646;2023-05-07T09:47:46;8.02;;;5.20;;
71207;SDS011;58938;49.868;8.646;2023-05-07T09:50:14;6.73;;;4.27;;
71207;SDS011;58938;49.868;8.646;2023-05-07T09:52:40;6.90;;;4.63;;
71207;SDS011;58938;49.868;8.646;2023-05-07T09:55:07;7.07;;;4.65;;
71207;SDS011;58938;49.868;8.646;2023-05-07T09:57:34;6.90;;;4.90;;
71207;SDS011;58938;49.868;8.646;2023-05-07T10:00:02;7.30;;;4.72;;
71207;SDS011;58938;49.868;8.646;2023-05-07T10:02:33;7.87;;;4.50;;
71207;SDS011;58938;49.868;8.646;2023-05-07T10:05:01;8.38;;;4.90;;
71207;SDS011;58938;49.868;8.646;2023-05-07T10:07:27;7.30;;;4.90;;
71207;SDS011;58938;49.868;8.646;2023-05-07T10:09:54;7.22;;;4.93;;
71207;SDS011;58938;49.868;8.646;2023-05-07T10:12:20;7.95;;;5.13;;
71207;SDS011;58938;49.868;8.646;2023-05-07T10:14:46;7.30;;;4.47;;
71207;SDS011;58938;49.868;8.646;2023-05-07T10:17:13;8.85;;;4.78;;
71207;SDS011;58938;49.868;8.646;2023-05-07T10:19:39;6.82;;;4.75;;
71207;SDS011;58938;49.868;8.646;2023-05-07T10:22:05;6.88;;;4.55;;
71207;SDS011;58938;49.868;8.646;2023-05-07T10:24:32;14.98;;;4.75;;
71207;SDS011;58938;49.868;8.646;2023-05-07T10:27:02;8.03;;;4.63;;
71207;SDS011;58938;49.868;8.646;2023-05-07T10:29:33;7.53;;;5.20;;
71207;SDS011;58938;49.868;8.646;2023-05-07T10:34:39;7.30;;;5.05;;
71207;SDS011;58938;49.868;8.646;2023-05-07T10:37:06;7.20;;;5.60;;
71207;SDS011;58938;49.868;8.646;2023-05-07T10:39:32;8.17;;;5.40;;
71207;SDS011;58938;49.868;8.646;2023-05-07T10:42:07;7.22;;;4.70;;
71207;SDS011;58938;49.868;8.646;2023-05-07T10:44:33;6.70;;;4.75;;
71207;SDS011;58938;49.868;8.646;2023-05-07T10:47:09;8.48;;;5.10;;
71207;SDS011;58938;49.868;8.646;2023-05-07T10:49:36;9.05;;;4.82;;
71207;SDS011;58938;49.868;8.646;2023-05-07T10:52:21;8.63;;;4.93;;
71207;SDS011;58938;49.868;8.646;2023-05-07T10:54:48;7.85;;;4.90;;
71207;SDS011;58938;49.868;8.646;2023-05-07T10:57:35;6.45;;;4.25;;
71207;SDS011;58938;49.868;8.646;2023-05-07T11:00:01;9.70;;;5.00;;
71207;SDS011;58938;49.868;8.646;2023-05-07T11:05:22;6.93;;;4.47;;
71207;SDS011;58938;49.868;8.646;2023-05-07T11:07:57;6.40;;;4.47;;
71207;SDS011;58938;49.868;8.646;2023-05-07T11:10:47;6.88;;;4.35;;
71207;SDS011;58938;49.868;8.646;2023-05-07T11:13:09;7.00;;;4.30;;
71207;SDS011;58938;49.868;8.646;2023-05-07T11:15:36;7.40;;;4.93;;
71207;SDS011;58938;49.868;8.646;2023-05-07T11:18:03;7.27;;;4.37;;
71207;SDS011;58938;49.868;8.646;2023-05-07T11:23:54;6.20;;;4.13;;
71207;SDS011;58938;49.868;8.646;2023-05-07T11:28:36;6.07;;;4.50;;
71207;SDS011;58938;49.868;8.646;2023-05-07T11:31:03;5.80;;;4.37;;
71207;SDS011;58938;49.868;8.646;2023-05-07T11:33:29;7.07;;;4.47;;
71207;SDS011;58938;49.868;8.646;2023-05-07T11:35:56;6.70;;;4.95;;
71207;SDS011;58938;49.868;8.646;2023-05-07T11:38:22;6.68;;;4.65;;
71207;SDS011;58938;49.868;8.646;2023-05-07T11:40:51;7.57;;;4.22;;
71207;SDS011;58938;49.868;8.646;2023-05-07T11:43:18;7.07;;;3.90;;
71207;SDS011;58938;49.868;8.646;2023-05-07T11:45:47;6.20;;;4.10;;
71207;SDS011;58938;49.868;8.646;2023-05-07T11:48:14;10.43;;;4.20;;
71207;SDS011;58938;49.868;8.646;2023-05-07T11:53:25;6.50;;;3.80;;
71207;SDS011;58938;49.868;8.646;2023-05-07T11:55:57;7.00;;;4.47;;
71207;SDS011;58938;49.868;8.646;2023-05-07T11:58:24;6.97;;;4.20;;
71207;SDS011;58938;49.868;8.646;2023-05-07T12:00:53;7.78;;;4.40;;
71207;SDS011;58938;49.868;8.646;2023-05-07T12:03:19;6.00;;;4.40;;
71207;SDS011;58938;49.868;8.646;2023-05-07T12:05:46;6.78;;;4.05;;
71207;SDS011;58938;49.868;8.646;2023-05-07T12:08:15;5.90;;;3.90;;
71207;SDS011;58938;49.868;8.646;2023-05-07T12:10:41;7.93;;;4.03;;
71207;SDS011;58938;49.868;8.646;2023-05-07T12:13:21;6.22;;;4.22;;
71207;SDS011;58938;49.868;8.646;2023-05-07T12:15:50;5.85;;;4.03;;
71207;SDS011;58938;49.868;8.646;2023-05-07T12:18:16;5.40;;;3.58;;
71207;SDS011;58938;49.868;8.646;2023-05-07T12:20:42;7.67;;;4.27;;
71207;SDS011;58938;49.868;8.646;2023-05-07T12:23:10;6.43;;;4.13;;
71207;SDS011;58938;49.868;8.646;2023-05-07T12:25:36;7.97;;;3.85;;
71207;SDS011;58938;49.868;8.646;2023-05-07T12:28:02;6.80;;;3.42;;
71207;SDS011;58938;49.868;8.646;2023-05-07T12:30:30;6.97;;;3.65;;
71207;SDS011;58938;49.868;8.646;2023-05-07T12:32:56;6.60;;;4.13;;
71207;SDS011;58938;49.868;8.646;2023-05-07T12:35:32;8.00;;;4.18;;
71207;SDS011;58938;49.868;8.646;2023-05-07T12:37:58;6.63;;;4.68;;
71207;SDS011;58938;49.868;8.646;2023-05-07T12:40:39;6.40;;;3.58;;
71207;SDS011;58938;49.868;8.646;2023-05-07T12:43:05;7.00;;;3.78;;
71207;SDS011;58938;49.868;8.646;2023-05-07T12:45:35;6.27;;;3.30;;
71207;SDS011;58938;49.868;8.646;2023-05-07T12:48:02;7.10;;;3.72;;
71207;SDS011;58938;49.868;8.646;2023-05-07T12:50:31;5.65;;;3.70;;
71207;SDS011;58938;49.868;8.646;2023-05-07T12:53:00;5.85;;;4.45;;
71207;SDS011;58938;49.868;8.646;2023-05-07T12:55:30;6.20;;;3.55;;
71207;SDS011;58938;49.868;8.646;2023-05-07T12:57:56;6.07;;;3.40;;
71207;SDS011;58938;49.868;8.646;2023-05-07T13:00:36;4.68;;;2.85;;
71207;SDS011;58938;49.868;8.646;2023-05-07T13:03:02;5.10;;;3.58;;
71207;SDS011;58938;49.868;8.646;2023-05-07T13:05:28;5.97;;;3.63;;
71207;SDS011;58938;49.868;8.646;2023-05-07T13:07:55;6.80;;;3.85;;
71207;SDS011;58938;49.868;8.646;2023-05-07T13:10:24;5.70;;;3.67;;
71207;SDS011;58938;49.868;8.646;2023-05-07T13:12:50;5.78;;;3.50;;
71207;SDS011;58938;49.868;8.646;2023-05-07T13:15:17;4.82;;;2.97;;
71207;SDS011;58938;49.868;8.646;2023-05-07T13:17:43;5.68;;;3.15;;
71207;SDS011;58938;49.868;8.646;2023-05-07T13:20:09;5.70;;;3.55;;
71207;SDS011;58938;49.868;8.646;2023-05-07T13:22:36;5.07;;;3.30;;
71207;SDS011;58938;49.868;8.646;2023-05-07T13:25:02;5.90;;;3.40;;
71207;SDS011;58938;49.868;8.646;2023-05-07T13:27:28;8.13;;;3.53;;
71207;SDS011;58938;49.868;8.646;2023-05-07T13:29:55;5.72;;;3.78;;
71207;SDS011;58938;49.868;8.646;2023-05-07T13:32:21;7.57;;;3.97;;
71207;SDS011;58938;49.868;8.646;2023-05-07T13:34:47;5.97;;;3.77;;
71207;SDS011;58938;49.868;8.646;2023-05-07T13:37:13;6.57;;;4.32;;
71207;SDS011;58938;49.868;8.646;2023-05-07T13:39:39;7.78;;;4.03;;
71207;SDS011;58938;49.868;8.646;2023-05-07T13:42:09;7.78;;;5.10;;
71207;SDS011;58938;49.868;8.646;2023-05-07T13:44:35;6.93;;;4.20;;
71207;SDS011;58938;49.868;8.646;2023-05-07T13:47:01;5.20;;;3.30;;
71207;SDS011;58938;49.868;8.646;2023-05-07T13:49:27;6.07;;;3.05;;
71207;SDS011;58938;49.868;8.646;2023-05-07T13:51:53;6.95;;;3.10;;
71207;SDS011;58938;49.868;8.646;2023-05-07T13:54:19;6.03;;;3.30;;
71207;SDS011;58938;49.868;8.646;2023-05-07T13:56:45;8.05;;;3.80;;
71207;SDS011;58938;49.868;8.646;2023-05-07T13:59:11;6.25;;;3.50;;
71207;SDS011;58938;49.868;8.646;2023-05-07T14:01:39;6.80;;;3.35;;
71207;SDS011;58938;49.868;8.646;2023-05-07T14:04:05;5.65;;;3.50;;
71207;SDS011;58938;49.868;8.646;2023-05-07T14:06:31;5.83;;;3.83;;
71207;SDS011;58938;49.868;8.646;2023-05-07T14:08:57;5.80;;;3.47;;
71207;SDS011;58938;49.868;8.646;2023-05-07T14:11:23;7.45;;;3.10;;
71207;SDS011;58938;49.868;8.646;2023-05-07T14:13:49;6.50;;;3.30;;
71207;SDS011;58938;49.868;8.646;2023-05-07T14:16:15;6.38;;;3.28;;
71207;SDS011;58938;49.868;8.646;2023-05-07T14:18:41;5.63;;;3.40;;
71207;SDS011;58938;49.868;8.646;2023-05-07T14:21:07;5.28;;;2.83;;
71207;SDS011;58938;49.868;8.646;2023-05-07T14:23:34;5.47;;;3.47;;
71207;SDS011;58938;49.868;8.646;2023-05-07T14:26:01;7.65;;;3.58;;
71207;SDS011;58938;49.868;8.646;2023-05-07T14:28:27;6.73;;;2.97;;
71207;SDS011;58938;49.868;8.646;2023-05-07T14:30:53;4.60;;;2.90;;
71207;SDS011;58938;49.868;8.646;2023-05-07T14:33:19;4.50;;;3.05;;
71207;SDS011;58938;49.868;8.646;2023-05-07T14:35:44;5.97;;;3.22;;
71207;SDS011;58938;49.868;8.646;2023-05-07T14:38:13;5.17;;;2.97;;
71207;SDS011;58938;49.868;8.646;2023-05-07T14:40:40;5.25;;;3.33;;
71207;SDS011;58938;49.868;8.646;2023-05-07T14:43:06;5.95;;;3.25;;
71207;SDS011;58938;49.868;8.646;2023-05-07T14:45:32;5.85;;;2.88;;
71207;SDS011;58938;49.868;8.646;2023-05-07T14:47:57;6.97;;;4.03;;
71207;SDS011;58938;49.868;8.646;2023-05-07T14:50:23;6.37;;;3.67;;
71207;SDS011;58938;49.868;8.646;2023-05-07T14:52:50;8.65;;;3.88;;
71207;SDS011;58938;49.868;8.646;2023-05-07T14:55:16;5.90;;;3.22;;
71207;SDS011;58938;49.868;8.646;2023-05-07T14:57:42;7.28;;;3.70;;
71207;SDS011;58938;49.868;8.646;2023-05-07T15:00:08;6.13;;;3.70;;